Time;durP1;ratioP1;P1;durP2;ratioP2;P2;SDS_P1;SDS_P2;PMS_P1;PMS_P2;Temp;Humidity;BMP_temperature;BMP_pressure;BME280_temperature;BME280_humidity;BME280_pressure;Samples;Min_cycle;Max_cycle;Signal;HPM_P1;HPM_P2
2022/07/11 00:01:05;;;;;;;3.00;2.70;;;;;;;;;;4968747;28;20034;-84
2022/07/11 00:03:31;;;;;;;2.10;2.00;;;;;;;;;;4964152;28;20026;-83
2022/07/11 00:05:57;;;;;;;1.75;1.65;;;;;;;;;;4964590;28;20504;-83
2022/07/11 00:08:23;;;;;;;2.28;2.00;;;;;;;;;;4963833;28;20046;-84
2022/07/11 00:10:49;;;;;;;1.80;1.70;;;;;;;;;;4964786;28;20611;-84
2022/07/11 00:13:15;;;;;;;2.08;1.98;;;;;;;;;;4967272;28;20509;-83
2022/07/11 00:15:41;;;;;;;3.58;3.28;;;;;;;;;;4963570;28;20070;-83
2022/07/11 00:18:07;;;;;;;2.50;2.30;;;;;;;;;;4964380;28;20037;-83
2022/07/11 00:20:34;;;;;;;2.30;2.08;;;;;;;;;;4963199;28;20421;-84
2022/07/11 00:23:00;;;;;;;3.03;2.73;;;;;;;;;;4964028;28;20031;-83
2022/07/11 00:25:26;;;;;;;2.47;2.28;;;;;;;;;;4967356;28;20848;-83
2022/07/11 00:27:52;;;;;;;2.97;2.75;;;;;;;;;;4963995;28;20039;-83
2022/07/11 00:30:19;;;;;;;2.72;2.53;;;;;;;;;;4951815;28;20054;-83
2022/07/11 00:32:44;;;;;;;2.40;2.30;;;;;;;;;;4962877;28;20031;-84
2022/07/11 00:35:11;;;;;;;2.50;2.40;;;;;;;;;;4963454;28;20049;-83
2022/07/11 00:37:37;;;;;;;2.28;2.08;;;;;;;;;;4966026;28;20073;-85
2022/07/11 00:40:03;;;;;;;2.70;2.60;;;;;;;;;;4963912;28;20039;-84
2022/07/11 00:42:29;;;;;;;2.83;2.70;;;;;;;;;;4967338;28;20457;-84
2022/07/11 00:44:55;;;;;;;2.67;2.47;;;;;;;;;;4968088;28;20035;-84
2022/07/11 00:47:21;;;;;;;2.92;2.83;;;;;;;;;;4963273;28;20022;-83
2022/07/11 00:49:47;;;;;;;3.13;3.00;;;;;;;;;;4963544;28;20522;-83
2022/07/11 00:52:13;;;;;;;2.75;2.55;;;;;;;;;;4946977;28;20115;-84
2022/07/11 00:54:40;;;;;;;3.05;2.80;;;;;;;;;;4966414;28;20060;-84
2022/07/11 00:57:06;;;;;;;2.38;2.22;;;;;;;;;;4968123;28;20547;-83
2022/07/11 00:59:32;;;;;;;2.58;2.17;;;;;;;;;;4967190;28;20549;-84
2022/07/11 01:01:58;;;;;;;4.25;3.10;;;;;;;;;;4963727;28;20422;-83
2022/07/11 01:04:24;;;;;;;2.80;2.70;;;;;;;;;;4964334;28;20034;-83
2022/07/11 01:06:50;;;;;;;2.90;2.80;;;;;;;;;;4962966;28;20031;-83
2022/07/11 01:09:16;;;;;;;2.70;2.50;;;;;;;;;;4963884;28;20030;-84
2022/07/11 01:11:42;;;;;;;3.50;2.80;;;;;;;;;;4964696;28;20031;-83
2022/07/11 01:14:08;;;;;;;3.10;2.90;;;;;;;;;;4966134;28;20042;-85
2022/07/11 01:16:34;;;;;;;3.13;3.00;;;;;;;;;;4967427;28;20031;-84
2022/07/11 01:19:00;;;;;;;3.33;2.53;;;;;;;;;;4967412;28;20035;-84
2022/07/11 01:21:30;;;;;;;3.25;3.05;;;;;;;;;;4963010;28;20038;-84
2022/07/11 01:23:57;;;;;;;3.42;3.22;;;;;;;;;;4966236;28;20019;-83
2022/07/11 01:26:25;;;;;;;3.50;3.33;;;20.10;56.90;;;;;;4966826;28;20489;-84
2022/07/11 01:28:51;;;;;;;3.20;3.00;;;;;;;;;;4963614;28;20033;-84
2022/07/11 01:31:17;;;;;;;3.20;3.10;;;;;;;;;;4967415;28;20058;-83
2022/07/11 01:33:44;;;;;;;3.85;3.55;;;;;;;;;;4963461;28;20047;-83
2022/07/11 01:36:10;;;;;;;3.83;3.53;;;;;;;;;;4964663;28;20058;-83
2022/07/11 01:38:36;;;;;;;4.20;3.83;;;;;;;;;;4966761;28;20034;-83
2022/07/11 01:41:02;;;;;;;8.20;4.53;;;;;;;;;;4970635;28;20033;-83
2022/07/11 01:43:28;;;;;;;3.78;3.58;;;;;;;;;;4968079;28;20110;-83
2022/07/11 01:45:55;;;;;;;3.50;3.30;;;19.60;58.20;;;;;;4952956;28;20081;-84
2022/07/11 01:48:21;;;;;;;3.88;3.67;;;;;;;;;;4968125;28;20718;-83
2022/07/11 01:50:48;;;;;;;4.05;3.75;;;;;;;;;;4966491;28;20030;-83
2022/07/11 01:53:14;;;;;;;4.15;3.78;;;;;;;;;;4966615;28;20050;-84
2022/07/11 01:55:40;;;;;;;4.55;4.25;;;;;;;;;;4968901;28;20055;-84
2022/07/11 01:58:06;;;;;;;4.75;4.10;;;;;;;;;;4967717;28;20026;-83
2022/07/11 02:00:32;;;;;;;4.50;4.25;;;;;;;;;;4968749;28;20030;-84
2022/07/11 02:02:58;;;;;;;4.70;4.30;;;;;;;;;;4953685;28;20023;-83
2022/07/11 02:05:24;;;;;;;3.83;3.63;;;;;;;;;;4966269;28;20034;-83
2022/07/11 02:10:36;;;;;;;4.13;3.83;;;;;;;;;;4957251;28;20051;-83
2022/07/11 02:13:02;;;;;;;7.05;3.97;;;;;;;;;;4970458;28;20113;-83
2022/07/11 02:15:28;;;;;;;4.22;4.03;;;;;;;;;;4953346;28;20041;-83
2022/07/11 02:17:55;;;;;;;4.40;4.10;;;;;;;;;;4966764;28;20397;-83
2022/07/11 02:20:21;;;;;;;4.38;4.18;;;;;;;;;;4947124;28;20355;-84
2022/07/11 02:22:51;;;;;;;4.35;4.07;;;;;;;;;;4967507;28;20123;-84
2022/07/11 02:25:17;;;;;;;4.40;4.20;;;;;;;;;;4969533;28;20031;-84
2022/07/11 02:27:43;;;;;;;15.98;4.90;;;;;;;;;;4965697;28;20039;-83
2022/07/11 02:30:10;;;;;;;4.97;4.50;;;;;;;;;;4966810;28;20520;-83
2022/07/11 02:32:36;;;;;;;4.40;4.13;;;;;;;;;;4964676;28;20045;-83
2022/07/11 02:35:02;;;;;;;4.75;4.45;;;;;;;;;;4966118;28;20450;-83
2022/07/11 02:37:28;;;;;;;5.38;4.82;;;;;;;;;;4949795;28;20557;-83
2022/07/11 02:39:54;;;;;;;4.28;3.97;;;;;;;;;;4952223;28;20995;-83
2022/07/11 02:42:20;;;;;;;4.40;3.85;;;;;;;;;;4978761;28;20019;-83
2022/07/11 02:44:46;;;;;;;4.15;3.95;;;;;;;;;;4965392;28;20412;-84
2022/07/11 02:47:13;;;;;;;4.57;4.38;;;;;;;;;;4970824;28;20034;-83
2022/07/11 02:49:40;;;;;;;4.53;4.22;;;;;;;;;;4968188;28;20034;-83
2022/07/11 02:52:06;;;;;;;6.00;5.55;;;;;;;;;;4965931;28;20054;-83
2022/07/11 02:54:32;;;;;;;4.53;4.30;;;;;;;;;;4967622;28;20108;-83
2022/07/11 02:56:58;;;;;;;5.60;4.95;;;;;;;;;;4965908;28;20406;-83
2022/07/11 02:59:24;;;;;;;5.55;5.05;;;;;;;;;;4965204;28;20027;-83
2022/07/11 03:01:50;;;;;;;5.25;4.93;;;;;;;;;;4966758;28;20434;-83
2022/07/11 03:04:16;;;;;;;5.55;5.15;;;;;;;;;;4968481;28;20110;-83
2022/07/11 03:06:42;;;;;;;5.13;4.82;;;;;;;;;;4964881;28;20122;-83
2022/07/11 03:09:09;;;;;;;5.40;5.10;;;;;;;;;;4965924;28;20676;-83
2022/07/11 03:11:35;;;;;;;6.38;6.07;;;;;;;;;;4964571;28;20038;-84
2022/07/11 03:14:01;;;;;;;6.50;6.15;;;;;;;;;;4964512;28;20043;-84
2022/07/11 03:16:28;;;;;;;5.25;5.05;;;18.20;62.80;;;;;;4969648;28;20109;-84
2022/07/11 03:18:54;;;;;;;7.85;5.68;;;;;;;;;;4965493;28;20035;-84
2022/07/11 03:21:20;;;;;;;5.95;5.65;;;;;;;;;;4966191;28;20505;-83
2022/07/11 03:23:46;;;;;;;6.82;6.03;;;;;;;;;;4964803;28;20027;-83
2022/07/11 03:26:12;;;;;;;6.65;6.25;;;;;;;;;;4964669;28;20031;-83
2022/07/11 03:28:38;;;;;;;7.03;6.53;;;;;;;;;;4967588;28;20031;-82
2022/07/11 03:31:04;;;;;;;7.20;6.90;;;;;;;;;;4951788;28;20058;-83
2022/07/11 03:33:30;;;;;;;7.03;6.72;;;;;;;;;;4966897;28;20826;-83
2022/07/11 03:35:56;;;;;;;7.00;6.70;;;;;;;;;;4966199;28;20035;-83
2022/07/11 03:38:22;;;;;;;6.85;6.55;;;;;;;;;;4963772;28;20030;-83
2022/07/11 03:40:49;;;;;;;6.40;6.07;;;;;;;;;;4971325;28;20490;-83
2022/07/11 03:43:17;;;;;;;7.53;7.13;;;;;;;;;;4976617;28;20030;-84
2022/07/11 03:45:44;;;;;;;7.15;6.75;;;;;;;;;;4964715;28;20035;-84
2022/07/11 03:48:10;;;;;;;6.88;6.47;;;;;;;;;;4965227;28;20093;-83
2022/07/11 03:50:36;;;;;;;6.68;6.28;;;;;;;;;;4963733;28;20425;-83
2022/07/11 03:53:02;;;;;;;7.68;7.30;;;;;;;;;;4963753;28;20059;-82
2022/07/11 03:55:29;;;;;;;7.32;6.93;;;;;;;;;;4968597;28;20035;-83
2022/07/11 03:57:55;;;;;;;7.30;6.90;;;;;;;;;;4964383;28;20031;-83
2022/07/11 04:00:21;;;;;;;7.07;6.78;;;;;;;;;;4951593;28;20058;-83
2022/07/11 04:02:48;;;;;;;7.85;7.45;;;;;;;;;;4967967;28;20026;-83
2022/07/11 04:05:14;;;;;;;7.18;6.88;;;;;;;;;;4950726;28;20038;-83
2022/07/11 04:07:40;;;;;;;7.30;6.93;;;;;;;;;;4964376;28;20038;-83
2022/07/11 04:10:06;;;;;;;7.20;6.80;;;;;;;;;;4966316;28;20030;-83
2022/07/11 04:12:32;;;;;;;6.57;6.20;;;;;;;;;;4966287;28;20402;-83
2022/07/11 04:14:58;;;;;;;7.07;6.57;;;;;;;;;;4963509;28;20138;-83
2022/07/11 04:17:26;;;;;;;6.13;5.82;;;;;;;;;;4963883;28;20141;-83
2022/07/11 04:19:52;;;;;;;6.70;6.30;;;;;;;;;;4965110;28;20470;-83
2022/07/11 04:22:18;;;;;;;6.53;6.25;;;;;;;;;;4946946;28;20027;-84
2022/07/11 04:24:44;;;;;;;6.32;6.03;;;;;;;;;;4967196;28;20043;-83
2022/07/11 04:27:10;;;;;;;7.05;6.75;;;;;;;;;;4964875;28;20030;-83
2022/07/11 04:29:36;;;;;;;6.43;6.13;;;;;;;;;;4963258;28;20043;-83
2022/07/11 04:32:02;;;;;;;6.20;5.93;;;;;;;;;;4965923;28;20212;-83
2022/07/11 04:34:28;;;;;;;6.68;6.20;;;;;;;;;;4967089;28;20046;-83
2022/07/11 04:36:54;;;;;;;6.40;6.10;;;;;;;;;;4964942;28;20394;-82
2022/07/11 04:39:20;;;;;;;6.85;6.38;;;;;;;;;;4969156;28;20027;-83
2022/07/11 04:41:46;;;;;;;6.70;6.30;;;;;;;;;;4966593;28;20041;-83
2022/07/11 04:44:12;;;;;;;6.47;6.07;;;;;;;;;;4968271;28;20039;-83
2022/07/11 04:46:38;;;;;;;6.75;6.32;;;;;;;;;;4966473;28;20080;-83
2022/07/11 04:49:04;;;;;;;7.00;6.50;;;;;;;;;;4965051;28;20059;-83
2022/07/11 04:51:30;;;;;;;6.45;6.05;;;;;;;;;;4963696;28;20065;-83
2022/07/11 04:53:56;;;;;;;6.32;6.03;;;;;;;;;;4963297;28;20646;-83
2022/07/11 04:56:22;;;;;;;5.93;5.65;;;;;;;;;;4962756;28;20038;-83
2022/07/11 04:58:48;;;;;;;8.05;6.68;;;;;;;;;;4962888;28;20103;-83
2022/07/11 05:01:14;;;;;;;6.45;5.85;;;;;;;;;;4966871;28;20130;-82
2022/07/11 05:03:40;;;;;;;5.95;5.63;;;;;;;;;;4962568;28;20500;-83
2022/07/11 05:06:06;;;;;;;6.70;6.30;;;;;;;;;;4962754;28;20037;-83
2022/07/11 05:08:36;;;;;;;6.53;6.20;;;;;;;;;;4962159;28;20639;-83
2022/07/11 05:11:02;;;;;;;7.20;6.65;;;;;;;;;;4962787;28;20086;-82
2022/07/11 05:13:28;;;;;;;7.85;7.25;;;;;;;;;;4970266;28;20035;-83
2022/07/11 05:15:54;;;;;;;9.10;8.50;;;;;;;;;;4966669;28;20097;-83
2022/07/11 05:18:20;;;;;;;7.28;6.97;;;;;;;;;;4966595;28;20081;-84
2022/07/11 05:20:48;;;;;;;7.05;6.75;;;;;;;;;;4965339;28;20038;-83
2022/07/11 05:23:14;;;;;;;7.18;6.43;;;;;;;;;;4964587;28;20529;-81
2022/07/11 05:25:40;;;;;;;6.60;6.15;;;;;;;;;;4964472;28;20027;-80
2022/07/11 05:28:06;;;;;;;6.32;5.82;;;;;;;;;;4965450;28;20034;-80
2022/07/11 05:30:32;;;;;;;6.45;6.10;;;;;;;;;;4964457;28;20127;-81
2022/07/11 05:32:58;;;;;;;6.43;6.13;;;;;;;;;;4964757;28;20094;-82
2022/07/11 05:35:25;;;;;;;6.63;6.22;;;;;;;;;;4967087;28;20498;-81
2022/07/11 05:37:51;;;;;;;7.13;6.72;;;;;;;;;;4970786;28;20023;-81
2022/07/11 05:40:17;;;;;;;7.07;6.68;;;;;;;;;;4950893;28;20502;-81
2022/07/11 05:42:43;;;;;;;6.47;6.18;;;;;;;;;;4951584;28;20417;-81
2022/07/11 05:45:09;;;;;;;5.70;5.40;;;;;;;;;;4967583;28;20031;-81
2022/07/11 05:47:35;;;;;;;6.95;5.88;;;;;;;;;;4967332;28;20485;-84
2022/07/11 05:50:01;;;;;;;5.95;5.60;;;;;;;;;;4968145;28;20030;-82
2022/07/11 05:52:29;;;;;;;5.50;5.20;;;19.30;62.70;;;;;;4966357;28;20027;-82
2022/07/11 05:54:56;;;;;;;6.72;5.47;;;;;;;;;;4964507;28;20050;-81
2022/07/11 05:57:22;;;;;;;5.05;4.85;;;;;;;;;;4965352;28;20520;-81
2022/07/11 05:59:48;;;;;;;5.10;4.80;;;;;;;;;;4966344;28;20564;-82
2022/07/11 06:02:14;;;;;;;8.23;7.40;;;;;;;;;;4968301;28;20414;-82
2022/07/11 06:04:42;;;;;;;7.00;6.55;;;;;;;;;;4966442;28;20035;-81
2022/07/11 06:07:08;;;;;;;6.63;6.13;;;;;;;;;;4964946;28;20051;-82
2022/07/11 06:09:35;;;;;;;6.10;5.80;;;;;;;;;;4964794;28;20037;-81
2022/07/11 06:12:01;;;;;;;5.22;4.93;;;;;;;;;;4965390;28;20019;-82
2022/07/11 06:14:27;;;;;;;5.18;4.88;;;;;;;;;;4968008;28;20140;-82
2022/07/11 06:16:53;;;;;;;5.35;5.05;;;;;;;;;;4961158;28;20397;-82
2022/07/11 06:19:19;;;;;;;9.57;5.10;;;;;;;;;;4967979;28;20035;-82
2022/07/11 06:21:45;;;;;;;5.13;4.72;;;;;;;;;;4964548;28;20509;-82
2022/07/11 06:24:11;;;;;;;5.75;5.35;;;;;;;;;;4964417;28;20027;-82
2022/07/11 06:26:37;;;;;;;16.00;4.80;;;;;;;;;;4963636;28;20023;-82
2022/07/11 06:29:03;;;;;;;5.00;4.53;;;;;;;;;;4963059;28;20034;-82
2022/07/11 06:31:29;;;;;;;4.90;4.60;;;;;;;;;;4965577;28;20031;-81
2022/07/11 06:33:57;;;;;;;4.70;4.40;;;;;;;;;;4967675;28;20076;-82
2022/07/11 06:36:23;;;;;;;;;;;;;;;;;;4969072;28;20050;-82
2022/07/11 06:38:49;;;;;;;6.38;3.72;;;20.70;61.40;;;;;;4963152;28;19918;-82
2022/07/11 06:41:16;;;;;;;6.07;4.70;;;;;;;;;;4961971;28;20034;-82
2022/07/11 06:43:42;;;;;;;4.18;3.78;;;;;;;;;;4965332;28;20054;-82
2022/07/11 06:46:08;;;;;;;3.53;3.33;;;;;;;;;;4963182;28;20081;-82
2022/07/11 06:48:34;;;;;;;4.40;4.20;;;;;;;;;;4956613;28;20026;-81
2022/07/11 06:51:00;;;;;;;4.00;3.75;;;;;;;;;;4952498;28;20056;-82
2022/07/11 06:53:26;;;;;;;4.00;3.80;;;;;;;;;;4959922;28;20038;-82
2022/07/11 06:55:52;;;;;;;3.33;3.13;;;;;;;;;;4965145;28;20037;-82
2022/07/11 06:58:33;;;;;;;2.97;1.20;;;;;;;;;;4947299;28;20042;-83
2022/07/11 07:01:00;;;;;;;0.90;0.80;;;26.20;49.00;;;;;;4963630;28;20038;-82
2022/07/11 07:03:26;;;;;;;0.45;0.40;;;;;;;;;;4966708;28;20035;-83
2022/07/11 07:05:55;;;;;;;;;;;28.60;44.70;;;;;;4964253;28;20042;-83
2022/07/11 07:08:21;;;;;;;1.60;0.90;;;;;;;;;;4965204;28;19969;-82
2022/07/11 07:10:47;;;;;;;12.70;12.00;;;;;;;;;;4966207;28;20035;-83
2022/07/11 07:13:13;;;;;;;11.20;10.70;;;;;;;;;;4964007;28;20101;-82
2022/07/11 07:15:39;;;;;;;16.23;15.52;;;;;;;;;;4963160;28;20039;-83
2022/07/11 07:18:05;;;;;;;16.45;15.75;;;;;;;;;;4963196;28;20157;-83
2022/07/11 07:20:31;;;;;;;14.15;13.55;;;;;;;;;;4964118;28;20512;-83
2022/07/11 07:22:57;;;;;;;10.80;10.30;;;;;;;;;;4964768;28;20033;-82
2022/07/11 07:25:22;;;;;;;;;;;33.50;37.10;;;;;;4962827;28;20031;-82
2022/07/11 07:27:48;;;;;;;29.30;28.05;;;;;;;;;;4947839;28;19924;-82
2022/07/11 07:30:14;;;;;;;28.15;26.98;;;;;;;;;;4965405;28;20118;-78
2022/07/11 07:32:40;;;;;;;25.73;24.43;;;;;;;;;;4964591;28;20026;-80
2022/07/11 07:35:06;;;;;;;23.87;22.93;;;;;;;;;;4965996;28;20098;-76
2022/07/11 07:37:32;;;;;;;31.00;29.57;;;;;;;;;;4965352;28;20054;-79
2022/07/11 07:39:58;;;;;;;36.72;35.28;;;;;;;;;;4965569;28;20159;-78
2022/07/11 07:42:24;;;;;;;33.63;32.13;;;;;;;;;;4952408;28;20498;-78
2022/07/11 07:44:50;;;;;;;37.88;36.28;;;;;;;;;;4960997;28;20092;-78
2022/07/11 07:47:16;;;;;;;38.17;36.47;;;;;;;;;;4965346;28;20139;-80
2022/07/11 07:49:42;;;;;;;41.58;39.58;;;;;;;;;;4947868;28;20113;-78
2022/07/11 07:52:08;;;;;;;44.15;42.05;;;;;;;;;;4965208;28;20031;-78
2022/07/11 07:54:34;;;;;;;27.83;26.63;;;;;;;;;;4965276;28;20061;-78
2022/07/11 07:57:00;;;;;;;17.73;16.93;;;;;;;;;;4946006;28;20437;-78
2022/07/11 07:59:26;;;;;;;11.52;11.13;;;;;;;;;;4963720;28;20031;-78
2022/07/11 08:01:52;;;;;;;10.60;10.15;;;;;;;;;;4963421;28;20037;-80
2022/07/11 08:04:18;;;;;;;;;;;31.90;39.60;;;;;;4964075;28;20027;-80
2022/07/11 08:06:44;;;;;;;6.07;5.78;;;;;;;;;;4960033;28;19921;-79
2022/07/11 08:09:10;;;;;;;5.45;5.20;;;33.40;56.40;;;;;;4962112;28;20031;-78
2022/07/11 08:11:36;;;;;;;5.03;4.82;;;;;;;;;;4962502;28;20445;-78
2022/07/11 08:14:03;;;;;;;;;;;34.60;36.30;;;;;;4961324;28;20416;-78
2022/07/11 08:16:30;;;;;;;4.22;3.85;;;35.60;34.60;;;;;;4963202;28;19921;-78
2022/07/11 08:18:57;;;;;;;4.00;3.70;;;35.80;34.00;;;;;;4962399;28;20045;-77
2022/07/11 08:21:23;;;;;;;3.75;3.55;;;;;;;;;;4963380;28;20098;-78
2022/07/11 08:23:49;;;;;;;;;;;36.30;33.30;;;;;;4945334;28;20609;-77
2022/07/11 08:26:15;;;;;;;3.65;3.50;;;;;;;;;;4964923;28;19961;-77
2022/07/11 08:28:40;;;;;;;;;;;36.90;32.80;;;;;;4963807;28;20109;-76
2022/07/11 08:31:06;;;;;;;3.42;3.22;;;;;;;;;;4964755;28;19953;-76
2022/07/11 08:33:32;;;;;;;3.40;3.20;;;;;;;;;;4965434;28;20129;-75
2022/07/11 08:35:58;;;;;;;3.75;3.40;;;;;;;;;;4964321;28;20521;-77
2022/07/11 08:38:24;;;;;;;3.38;3.17;;;;;;;;;;4963336;28;20034;-76
2022/07/11 08:40:51;;;;;;;4.35;3.95;;;;;;;;;;4964872;28;20027;-78
2022/07/11 08:43:16;;;;;;;;;;;;;;;;;;4963053;28;20024;-77
2022/07/11 08:45:43;;;;;;;16.67;3.92;;;;;;;;;;4962764;28;19917;-77
2022/07/11 08:48:09;;;;;;;3.55;3.35;;;;;;;;;;4964701;28;20497;-76
2022/07/11 08:50:35;;;;;;;3.25;3.15;;;36.20;32.40;;;;;;4963583;28;20026;-77
2022/07/11 08:53:03;;;;;;;3.58;3.38;;;36.60;33.30;;;;;;4963856;28;20058;-77
2022/07/11 08:55:29;;;;;;;3.80;3.50;;;;;;;;;;4965155;28;20043;-76
2022/07/11 08:57:55;;;;;;;3.60;3.50;;;36.60;33.40;;;;;;4964632;28;20031;-76
2022/07/11 09:00:22;;;;;;;5.03;4.72;;;36.70;33.00;;;;;;4942342;28;20045;-79
2022/07/11 09:02:49;;;;;;;10.68;4.72;;;36.80;33.30;;;;;;4963395;28;20088;-76
2022/07/11 09:05:15;;;;;;;4.57;4.28;;;;;;;;;;4960044;28;20034;-77
2022/07/11 09:07:44;;;;;;;5.28;4.88;;;37.50;33.50;;;;;;4962623;28;20042;-77
2022/07/11 09:10:10;;;;;;;5.15;4.60;;;;;;;;;;4962280;28;20122;-75
2022/07/11 09:12:36;;;;;;;4.80;4.25;;;;;;;;;;4964238;28;20927;-76
2022/07/11 09:15:02;;;;;;;6.03;5.47;;;;;;;;;;4965203;28;20043;-75
2022/07/11 09:17:32;;;;;;;6.75;5.88;;;38.80;31.50;;;;;;4963999;28;20027;-77
2022/07/11 09:19:58;;;;;;;5.35;5.05;;;;;;;;;;4963379;28;20038;-76
2022/07/11 09:25:21;;;;;;;7.35;5.28;;;39.00;35.00;;;;;;4965269;28;20045;-77
2022/07/11 09:27:54;;;;;;;5.90;5.40;;;38.50;39.00;;;;;;4967022;28;20031;-78
2022/07/11 09:30:21;;;;;;;6.05;5.75;;;39.40;44.10;;;;;;4964021;28;20031;-78
2022/07/11 09:32:59;;;;;;;6.78;4.93;;;39.00;31.20;;;;;;4963384;28;20093;-76
2022/07/11 09:35:30;;;;;;;5.88;5.35;;;39.10;31.30;;;;;;4962807;28;20070;-75
2022/07/11 09:37:56;;;;;;;9.23;5.43;;;;;;;;;;4964040;28;20675;-78
2022/07/11 09:40:23;;;;;;;7.05;6.20;;;;;;;;;;4963259;28;20090;-77
2022/07/11 09:42:52;;;;;;;;;;;39.90;30.70;;;;;;4967892;28;20070;-76
2022/07/11 09:45:19;;;;;;;6.47;5.97;;;39.20;30.00;;;;;;4963717;28;20317;-77
2022/07/11 09:47:46;;;;;;;5.47;4.97;;;39.30;30.10;;;;;;4963560;28;20023;-76
2022/07/11 09:50:12;;;;;;;6.20;5.90;;;;;;;;;;4962613;28;20034;-77
2022/07/11 09:52:39;;;;;;;9.35;6.43;;;;;;;;;;4964440;28;20022;-79
2022/07/11 09:55:05;;;;;;;6.40;6.15;;;38.80;29.40;;;;;;4958612;28;20042;-78
2022/07/11 09:57:31;;;;;;;6.43;6.13;;;;;;;;;;4960908;28;20042;-78
2022/07/11 09:59:58;;;;;;;6.60;6.20;;;38.00;30.30;;;;;;4967761;28;20386;-79
2022/07/11 10:02:24;;;;;;;6.47;6.18;;;37.90;30.00;;;;;;4966623;28;20413;-79
2022/07/11 10:04:49;;;;;;;;;;;37.70;30.40;;;;;;4966872;28;20737;-78
2022/07/11 10:07:15;;;;;;;7.28;6.95;;;;;;;;;;4967240;28;19954;-78
2022/07/11 10:09:42;;;;;;;8.13;7.32;;;;;;;;;;4963928;28;20138;-79
2022/07/11 10:12:08;;;;;;;6.25;5.93;;;;;;;;;;4965486;28;20486;-78
2022/07/11 10:14:38;;;;;;;6.65;6.35;;;38.50;30.80;;;;;;4965958;28;20042;-78
2022/07/11 10:17:14;;;;;;;6.82;6.53;;;;;;;;;;4963991;28;20031;-79
2022/07/11 10:19:54;;;;;;;6.80;6.50;;;38.90;31.50;;;;;;4968042;28;20062;-79
2022/07/11 10:22:42;;;;;;;6.38;6.07;;;39.00;31.90;;;;;;4968297;28;20038;-78
2022/07/11 10:25:26;;;;;;;6.88;6.22;;;38.90;30.30;;;;;;4968237;28;20142;-78
2022/07/11 10:27:55;;;;;;;6.90;6.55;;;38.10;30.40;;;;;;4968313;28;20395;-78
2022/07/11 10:30:43;;;;;;;5.95;5.65;;;38.30;31.00;;;;;;4969091;28;20413;-78
2022/07/11 10:33:09;;;;;;;6.65;6.15;;;;;;;;;;4963774;28;20505;-78
2022/07/11 10:35:36;;;;;;;6.15;5.85;;;;;;;;;;4963248;28;20034;-79
2022/07/11 10:38:05;;;;;;;6.10;5.68;;;37.80;30.90;;;;;;4957182;28;20046;-79
2022/07/11 10:40:47;;;;;;;7.45;6.85;;;38.20;30.80;;;;;;4968419;28;20031;-79
2022/07/11 10:43:15;;;;;;;6.45;6.18;;;37.30;30.80;;;;;;4976315;28;20082;-79
2022/07/11 10:45:55;;;;;;;7.38;6.43;;;;;;;;;;4967795;28;20062;-79
2022/07/11 10:48:21;;;;;;;6.30;6.00;;;;;;;;;;4966964;28;20026;-78
2022/07/11 10:50:47;;;;;;;6.88;6.57;;;;;;;;;;4967304;28;20578;-79
2022/07/11 10:53:22;;;;;;;8.65;8.07;;;35.90;32.20;;;;;;4967770;28;20047;-79
2022/07/11 10:56:05;;;;;;;8.20;7.80;;;35.30;32.80;;;;;;4969215;28;20300;-79
2022/07/11 10:58:31;;;;;;;7.68;7.18;;;35.30;33.80;;;;;;4964095;28;20453;-80
2022/07/11 11:01:12;;;;;;;9.02;8.63;;;;;;;;;;4964608;28;20025;-82
2022/07/11 11:03:43;;;;;;;8.93;8.50;;;;;;;;;;4967714;28;20560;-83
2022/07/11 11:06:09;;;;;;;8.70;8.30;;;34.00;35.20;;;;;;4966170;28;20027;-83
2022/07/11 11:08:42;;;;;;;;;;;34.10;35.10;;;;;;4967184;28;20031;-81
2022/07/11 11:11:35;;;;;;;9.23;8.73;;;33.40;35.90;;;;;;4962994;28;20664;-81
2022/07/11 11:14:15;;;;;;;10.00;9.52;;;32.70;36.70;;;;;;4957692;28;20058;-81
2022/07/11 11:16:42;;;;;;;11.70;11.23;;;;;;;;;;4961571;28;20039;-81
2022/07/11 11:19:08;;;;;;;10.77;10.38;;;;;;;;;;4967392;28;20019;-81
2022/07/11 11:21:34;;;;;;;13.38;12.85;;;;;;;;;;4967891;28;20039;-81
2022/07/11 11:24:08;;;;;;;14.88;14.27;;;;;;;;;;4967248;28;20030;-81
2022/07/11 11:26:48;;;;;;;17.98;17.08;;;31.40;37.80;;;;;;4966968;28;20038;-82
2022/07/11 11:29:22;;;;;;;19.27;18.38;;;30.90;38.30;;;;;;4967414;28;20031;-81
2022/07/11 11:31:55;;;;;;;17.98;17.17;;;;;;;;;;4969925;28;20410;-81
2022/07/11 11:34:22;;;;;;;16.77;15.95;;;;;;;;;;4966992;28;20038;-80
2022/07/11 11:36:56;;;;;;;16.70;15.90;;;;;;;;;;4949482;28;20041;-81
2022/07/11 11:39:40;;;;;;;16.58;15.75;;;29.90;40.90;;;;;;4968562;28;20113;-81
2022/07/11 11:42:11;;;;;;;16.20;15.60;;;30.00;39.90;;;;;;4967521;28;20069;-81
2022/07/11 11:44:59;;;;;;;30.70;18.40;;;30.00;40.30;;;;;;4966998;28;20027;-80
2022/07/11 11:47:25;;;;;;;16.98;16.27;;;30.20;50.30;;;;;;4962451;28;20067;-80
2022/07/11 11:49:51;;;;;;;17.95;17.15;;;;;;;;;;4948203;28;20405;-84
2022/07/11 11:52:18;;;;;;;18.63;17.73;;;;;;;;;;4963806;28;20045;-83
2022/07/11 11:54:45;;;;;;;18.30;17.55;;;;;;;;;;4948781;28;20085;-83
2022/07/11 11:57:11;;;;;;;21.25;20.20;;;;;;;;;;4964543;28;20617;-85
2022/07/11 11:59:38;;;;;;;21.63;20.75;;;;;;;;;;4945307;28;20041;-84
2022/07/11 12:02:04;;;;;;;21.25;20.13;;;;;;;;;;4964590;28;20064;-83
2022/07/11 12:04:32;;;;;;;23.37;22.47;;;29.10;43.00;;;;;;4962742;28;20578;-87
2022/07/11 12:06:59;;;;;;;23.70;22.63;;;;;;;;;;4942712;28;20057;-84
2022/07/11 12:14:55;;;;;;;25.33;24.33;;;;;;;;;;4961927;28;20049;-84
2022/07/11 12:17:31;;;;;;;26.23;25.13;;;;;;;;;;4963706;28;20129;-84
2022/07/11 12:19:57;;;;;;;28.77;27.63;;;;;;;;;;4966317;28;20041;-83
2022/07/11 12:22:23;;;;;;;27.38;26.27;;;;;;;;;;4965847;28;20097;-84
2022/07/11 12:24:51;;;;;;;28.65;27.25;;;;;;;;;;4962975;28;20039;-82
2022/07/11 12:27:26;;;;;;;28.45;27.15;;;;;;;;;;4949391;28;20045;-82
2022/07/11 12:29:52;;;;;;;27.10;26.02;;;;;;;;;;4963054;28;20054;-83
2022/07/11 12:32:19;;;;;;;28.93;27.63;;;29.00;44.20;;;;;;4966848;28;20039;-83
2022/07/11 12:34:45;;;;;;;;;;;;;;;;;;4965978;28;20055;-82
2022/07/11 12:37:16;;;;;;;34.10;32.37;;;28.70;45.10;;;;;;4965075;28;19923;-87
2022/07/11 12:40:03;;;;;;;31.88;30.60;;;28.70;45.00;;;;;;4966479;28;20035;-89
2022/07/11 12:42:34;;;;;;;31.00;29.70;;;;;;;;;;4968525;28;20034;-89
2022/07/11 12:45:08;;;;;;;34.45;32.95;;;;;;;;;;4965956;28;20023;-88
2022/07/11 12:47:34;;;;;;;35.40;33.22;;;;;;;;;;4966116;28;20121;-88
2022/07/11 12:50:27;;;;;;;40.75;38.63;;;28.50;45.50;;;;;;4966162;28;20125;-88
2022/07/11 12:52:56;;;;;;;32.95;31.38;;;28.40;45.40;;;;;;4958591;28;20545;-89
2022/07/11 12:55:23;;;;;;;35.17;33.75;;;28.30;45.60;;;;;;4965995;28;20050;-88
2022/07/11 12:58:10;;;;;;;37.08;35.47;;;28.30;47.00;;;;;;4966598;28;20489;-89
2022/07/11 13:00:44;;;;;;;39.05;36.80;;;28.40;45.80;;;;;;4966378;28;20125;-89
2022/07/11 13:03:10;;;;;;;37.72;36.22;;;;;;;;;;4956488;28;20023;-88
2022/07/11 13:05:47;;;;;;;39.25;37.53;;;;;;;;;;4966352;28;20031;-90
2022/07/11 13:08:42;;;;;;;39.75;38.15;;;28.50;46.20;;;;;;4966689;28;20114;-88
2022/07/11 13:11:19;;;;;;;41.35;39.10;;;;;;;;;;4958133;28;20086;-89
2022/07/11 13:13:47;;;;;;;39.28;37.55;;;;;;;;;;4958395;28;20046;-89
2022/07/11 13:16:13;;;;;;;39.38;37.47;;;;;;;;;;4965832;28;20058;-88
2022/07/11 13:18:39;;;;;;;41.33;39.53;;;;;;;;;;4966999;28;20027;-89
2022/07/11 13:21:07;;;;;;;40.13;38.42;;;;;;;;;;4967800;28;20246;-88
2022/07/11 13:23:33;;;;;;;41.08;39.08;;;;;;;;;;4967109;28;20093;-89
2022/07/11 13:25:59;;;;;;;42.72;40.75;;;;;;;;;;4967084;28;20031;-89
2022/07/11 13:28:26;;;;;;;44.80;42.92;;;;;;;;;;4973541;28;20035;-89
2022/07/11 13:30:52;;;;;;;43.95;42.15;;;;;;;;;;4966053;28;20031;-90
2022/07/11 13:33:19;;;;;;;43.78;42.08;;;;;;;;;;4949000;28;20046;-89
2022/07/11 13:35:45;;;;;;;47.33;45.33;;;;;;;;;;4946772;28;20038;-89
2022/07/11 13:38:11;;;;;;;40.55;38.85;;;;;;;;;;4964524;28;20054;-88
2022/07/11 13:40:37;;;;;;;44.95;43.05;;;;;;;;;;4953667;28;20494;-88
2022/07/11 13:43:03;;;;;;;42.17;40.38;;;;;;;;;;4960922;28;20041;-89
2022/07/11 13:45:30;;;;;;;40.45;38.85;;;;;;;;;;4970751;28;20034;-89
2022/07/11 13:47:57;;;;;;;40.67;38.92;;;;;;;;;;4970646;28;20377;-91
2022/07/11 13:50:23;;;;;;;39.15;37.45;;;;;;;;;;4970369;28;20531;-89
2022/07/11 13:52:49;;;;;;;43.08;41.28;;;28.20;49.20;;;;;;4952344;29;20138;-90
2022/07/11 13:55:22;;;;;;;38.80;37.28;;;28.20;47.80;;;;;;4965264;28;20047;-88
2022/07/11 13:57:49;;;;;;;40.05;38.45;;;;;;;;;;4966200;28;20074;-89
2022/07/11 14:00:16;;;;;;;39.00;37.50;;;;;;;;;;4974571;28;20038;-88
2022/07/11 14:02:42;;;;;;;38.63;37.03;;;;;;;;;;4970892;28;20065;-88
2022/07/11 14:05:09;;;;;;;37.73;36.13;;;;;;;;;;4970856;28;20057;-88
2022/07/11 14:07:35;;;;;;;44.33;42.00;;;;;;;;;;4971266;28;20043;-87
2022/07/11 14:10:01;;;;;;;40.42;38.55;;;;;;;;;;4970325;28;20031;-88
2022/07/11 14:12:28;;;;;;;37.90;36.15;;;;;;;;;;4954328;28;20030;-88
2022/07/11 14:14:54;;;;;;;45.17;43.15;;;;;;;;;;4970129;28;20525;-86
2022/07/11 14:17:21;;;;;;;38.15;36.65;;;;;;;;;;4969864;28;20034;-87
2022/07/11 14:19:47;;;;;;;40.60;38.97;;;;;;;;;;4970256;28;20030;-83
2022/07/11 14:22:13;;;;;;;38.03;36.53;;;;;;;;;;4968878;28;20042;-82
2022/07/11 14:24:39;;;;;;;42.05;40.13;;;;;;;;;;4967330;28;20039;-83
2022/07/11 14:27:05;;;;;;;42.67;40.53;;;;;;;;;;4967028;28;20091;-83